sensor_id;sensor_type;location;lat;lon;timestamp;P1;durP1;ratioP1;P2;durP2;ratioP2
65206;SDS011;58477;48.072;11.970;2023-10-13T00:01:01;3.67;;;1.92;;
65206;SDS011;58477;48.072;11.970;2023-10-13T00:03:29;3.08;;;1.88;;
65206;SDS011;58477;48.072;11.970;2023-10-13T00:05:57;3.72;;;1.95;;
65206;SDS011;58477;48.072;11.970;2023-10-13T00:08:28;2.70;;;1.75;;
65206;SDS011;58477;48.072;11.970;2023-10-13T00:10:54;6.63;;;2.20;;
65206;SDS011;58477;48.072;11.970;2023-10-13T00:13:25;4.47;;;1.95;;
65206;SDS011;58477;48.072;11.970;2023-10-13T00:15:52;4.47;;;1.70;;
65206;SDS011;58477;48.072;11.970;2023-10-13T00:18:31;4.03;;;1.50;;
65206;SDS011;58477;48.072;11.970;2023-10-13T00:21:07;4.30;;;1.80;;
65206;SDS011;58477;48.072;11.970;2023-10-13T00:23:48;4.55;;;1.77;;
65206;SDS011;58477;48.072;11.970;2023-10-13T00:26:23;7.60;;;2.33;;
65206;SDS011;58477;48.072;11.970;2023-10-13T00:29:02;4.32;;;1.80;;
65206;SDS011;58477;48.072;11.970;2023-10-13T00:31:41;6.25;;;1.88;;
65206;SDS011;58477;48.072;11.970;2023-10-13T00:34:12;4.97;;;1.70;;
65206;SDS011;58477;48.072;11.970;2023-10-13T00:36:44;6.28;;;1.80;;
65206;SDS011;58477;48.072;11.970;2023-10-13T00:39:28;5.30;;;1.80;;
65206;SDS011;58477;48.072;11.970;2023-10-13T00:41:54;3.90;;;1.65;;
65206;SDS011;58477;48.072;11.970;2023-10-13T00:44:24;6.20;;;1.95;;
65206;SDS011;58477;48.072;11.970;2023-10-13T00:47:09;9.45;;;1.80;;
65206;SDS011;58477;48.072;11.970;2023-10-13T00:49:42;7.07;;;1.63;;
65206;SDS011;58477;48.072;11.970;2023-10-13T00:52:12;5.22;;;1.95;;
65206;SDS011;58477;48.072;11.970;2023-10-13T00:54:40;3.67;;;1.63;;
65206;SDS011;58477;48.072;11.970;2023-10-13T00:57:15;5.28;;;2.13;;
65206;SDS011;58477;48.072;11.970;2023-10-13T00:59:55;5.55;;;1.60;;
65206;SDS011;58477;48.072;11.970;2023-10-13T01:02:22;4.78;;;2.05;;
65206;SDS011;58477;48.072;11.970;2023-10-13T01:05:06;4.28;;;1.63;;
65206;SDS011;58477;48.072;11.970;2023-10-13T01:07:36;5.85;;;1.85;;
65206;SDS011;58477;48.072;11.970;2023-10-13T01:10:09;7.50;;;1.70;;
65206;SDS011;58477;48.072;11.970;2023-10-13T01:12:38;7.22;;;1.95;;
65206;SDS011;58477;48.072;11.970;2023-10-13T01:15:03;8.20;;;2.10;;
65206;SDS011;58477;48.072;11.970;2023-10-13T01:17:32;6.65;;;1.95;;
65206;SDS011;58477;48.072;11.970;2023-10-13T01:19:59;2.65;;;1.70;;
65206;SDS011;58477;48.072;11.970;2023-10-13T01:22:24;7.90;;;1.65;;
65206;SDS011;58477;48.072;11.970;2023-10-13T01:24:52;3.63;;;1.60;;
65206;SDS011;58477;48.072;11.970;2023-10-13T01:27:29;4.40;;;1.67;;
65206;SDS011;58477;48.072;11.970;2023-10-13T01:29:54;4.30;;;1.55;;
65206;SDS011;58477;48.072;11.970;2023-10-13T01:32:31;6.88;;;1.98;;
65206;SDS011;58477;48.072;11.970;2023-10-13T01:34:56;3.22;;;1.33;;
65206;SDS011;58477;48.072;11.970;2023-10-13T01:37:30;6.00;;;1.80;;
65206;SDS011;58477;48.072;11.970;2023-10-13T01:39:55;3.13;;;1.85;;
65206;SDS011;58477;48.072;11.970;2023-10-13T01:42:21;2.88;;;1.50;;
65206;SDS011;58477;48.072;11.970;2023-10-13T01:44:47;3.05;;;1.50;;
65206;SDS011;58477;48.072;11.970;2023-10-13T01:47:12;4.63;;;1.92;;
65206;SDS011;58477;48.072;11.970;2023-10-13T01:49:38;3.55;;;1.67;;
65206;SDS011;58477;48.072;11.970;2023-10-13T01:52:11;6.10;;;1.83;;
65206;SDS011;58477;48.072;11.970;2023-10-13T01:54:40;7.18;;;2.08;;
65206;SDS011;58477;48.072;11.970;2023-10-13T01:57:09;5.78;;;1.65;;
65206;SDS011;58477;48.072;11.970;2023-10-13T01:59:39;8.55;;;1.50;;
65206;SDS011;58477;48.072;11.970;2023-10-13T02:02:12;2.38;;;1.20;;
65206;SDS011;58477;48.072;11.970;2023-10-13T02:04:38;7.85;;;1.50;;
65206;SDS011;58477;48.072;11.970;2023-10-13T02:07:14;3.17;;;1.75;;
65206;SDS011;58477;48.072;11.970;2023-10-13T02:09:41;4.07;;;1.80;;
65206;SDS011;58477;48.072;11.970;2023-10-13T02:12:08;4.95;;;1.45;;
65206;SDS011;58477;48.072;11.970;2023-10-13T02:14:37;2.70;;;1.67;;
65206;SDS011;58477;48.072;11.970;2023-10-13T02:17:03;3.35;;;1.83;;
65206;SDS011;58477;48.072;11.970;2023-10-13T02:19:39;6.72;;;1.85;;
65206;SDS011;58477;48.072;11.970;2023-10-13T02:22:08;4.65;;;1.80;;
65206;SDS011;58477;48.072;11.970;2023-10-13T02:24:36;3.08;;;1.48;;
65206;SDS011;58477;48.072;11.970;2023-10-13T02:27:07;5.88;;;2.00;;
65206;SDS011;58477;48.072;11.970;2023-10-13T02:29:41;6.82;;;2.25;;
65206;SDS011;58477;48.072;11.970;2023-10-13T02:32:10;5.15;;;1.90;;
65206;SDS011;58477;48.072;11.970;2023-10-13T02:34:44;6.57;;;2.15;;
65206;SDS011;58477;48.072;11.970;2023-10-13T02:37:10;2.15;;;1.60;;
65206;SDS011;58477;48.072;11.970;2023-10-13T02:39:37;8.50;;;1.70;;
65206;SDS011;58477;48.072;11.970;2023-10-13T02:42:06;5.10;;;2.05;;
65206;SDS011;58477;48.072;11.970;2023-10-13T02:44:33;3.53;;;1.80;;
65206;SDS011;58477;48.072;11.970;2023-10-13T02:47:01;7.40;;;1.92;;
65206;SDS011;58477;48.072;11.970;2023-10-13T02:49:38;4.85;;;1.52;;
65206;SDS011;58477;48.072;11.970;2023-10-13T02:52:08;2.88;;;1.35;;
65206;SDS011;58477;48.072;11.970;2023-10-13T02:54:35;3.22;;;2.00;;
65206;SDS011;58477;48.072;11.970;2023-10-13T02:57:07;1.67;;;1.33;;
65206;SDS011;58477;48.072;11.970;2023-10-13T02:59:33;7.43;;;2.30;;
65206;SDS011;58477;48.072;11.970;2023-10-13T03:02:16;5.70;;;1.80;;
65206;SDS011;58477;48.072;11.970;2023-10-13T03:04:54;3.97;;;1.90;;
65206;SDS011;58477;48.072;11.970;2023-10-13T03:07:34;5.15;;;1.80;;
65206;SDS011;58477;48.072;11.970;2023-10-13T03:10:02;4.25;;;2.17;;
65206;SDS011;58477;48.072;11.970;2023-10-13T03:12:38;4.68;;;1.88;;
65206;SDS011;58477;48.072;11.970;2023-10-13T03:15:05;5.25;;;1.70;;
65206;SDS011;58477;48.072;11.970;2023-10-13T03:17:38;5.50;;;2.33;;
65206;SDS011;58477;48.072;11.970;2023-10-13T03:20:09;7.40;;;2.38;;
65206;SDS011;58477;48.072;11.970;2023-10-13T03:22:39;6.22;;;1.73;;
65206;SDS011;58477;48.072;11.970;2023-10-13T03:25:06;3.63;;;1.83;;
65206;SDS011;58477;48.072;11.970;2023-10-13T03:27:32;4.18;;;2.00;;
65206;SDS011;58477;48.072;11.970;2023-10-13T03:30:06;4.57;;;1.77;;
65206;SDS011;58477;48.072;11.970;2023-10-13T03:32:41;8.55;;;1.88;;
65206;SDS011;58477;48.072;11.970;2023-10-13T03:35:26;5.15;;;2.13;;
65206;SDS011;58477;48.072;11.970;2023-10-13T03:38:02;8.57;;;1.92;;
65206;SDS011;58477;48.072;11.970;2023-10-13T03:40:28;2.75;;;1.98;;
65206;SDS011;58477;48.072;11.970;2023-10-13T03:42:54;3.28;;;1.90;;
65206;SDS011;58477;48.072;11.970;2023-10-13T03:45:33;7.05;;;2.10;;
65206;SDS011;58477;48.072;11.970;2023-10-13T03:48:25;3.95;;;2.03;;
65206;SDS011;58477;48.072;11.970;2023-10-13T03:50:50;5.70;;;2.13;;
65206;SDS011;58477;48.072;11.970;2023-10-13T03:53:39;8.85;;;2.17;;
65206;SDS011;58477;48.072;11.970;2023-10-13T03:56:22;12.00;;;2.22;;
65206;SDS011;58477;48.072;11.970;2023-10-13T03:58:52;5.43;;;1.80;;
65206;SDS011;58477;48.072;11.970;2023-10-13T04:01:34;4.72;;;2.15;;
65206;SDS011;58477;48.072;11.970;2023-10-13T04:04:17;4.70;;;2.08;;
65206;SDS011;58477;48.072;11.970;2023-10-13T04:07:02;7.07;;;2.60;;
65206;SDS011;58477;48.072;11.970;2023-10-13T04:09:35;4.80;;;2.10;;
65206;SDS011;58477;48.072;11.970;2023-10-13T04:12:07;5.32;;;2.05;;
65206;SDS011;58477;48.072;11.970;2023-10-13T04:14:39;4.53;;;2.15;;
65206;SDS011;58477;48.072;11.970;2023-10-13T04:17:39;8.35;;;2.30;;
65206;SDS011;58477;48.072;11.970;2023-10-13T04:20:11;9.95;;;2.35;;
65206;SDS011;58477;48.072;11.970;2023-10-13T04:22:37;4.57;;;2.28;;
65206;SDS011;58477;48.072;11.970;2023-10-13T04:28:09;5.55;;;2.13;;
65206;SDS011;58477;48.072;11.970;2023-10-13T04:30:48;8.18;;;2.45;;
65206;SDS011;58477;48.072;11.970;2023-10-13T04:33:29;6.63;;;2.40;;
65206;SDS011;58477;48.072;11.970;2023-10-13T04:36:06;5.60;;;3.00;;
65206;SDS011;58477;48.072;11.970;2023-10-13T04:38:47;5.38;;;2.40;;
65206;SDS011;58477;48.072;11.970;2023-10-13T04:41:29;3.75;;;2.08;;
65206;SDS011;58477;48.072;11.970;2023-10-13T04:46:51;10.13;;;2.72;;
65206;SDS011;58477;48.072;11.970;2023-10-13T04:49:23;5.07;;;2.55;;
65206;SDS011;58477;48.072;11.970;2023-10-13T04:51:52;5.30;;;2.33;;
65206;SDS011;58477;48.072;11.970;2023-10-13T04:54:33;4.85;;;2.55;;
65206;SDS011;58477;48.072;11.970;2023-10-13T04:57:20;9.02;;;2.50;;
65206;SDS011;58477;48.072;11.970;2023-10-13T05:00:05;8.80;;;2.50;;
65206;SDS011;58477;48.072;11.970;2023-10-13T05:02:42;15.40;;;2.53;;
65206;SDS011;58477;48.072;11.970;2023-10-13T05:05:12;7.35;;;2.38;;
65206;SDS011;58477;48.072;11.970;2023-10-13T05:07:50;3.97;;;2.20;;
65206;SDS011;58477;48.072;11.970;2023-10-13T05:10:35;7.53;;;2.10;;
65206;SDS011;58477;48.072;11.970;2023-10-13T05:13:19;9.50;;;2.72;;
65206;SDS011;58477;48.072;11.970;2023-10-13T05:19:54;4.70;;;2.67;;
65206;SDS011;58477;48.072;11.970;2023-10-13T05:22:40;9.45;;;2.60;;
65206;SDS011;58477;48.072;11.970;2023-10-13T05:25:24;6.97;;;3.58;;
65206;SDS011;58477;48.072;11.970;2023-10-13T05:28:08;4.63;;;2.40;;
65206;SDS011;58477;48.072;11.970;2023-10-13T05:30:52;5.03;;;2.60;;
65206;SDS011;58477;48.072;11.970;2023-10-13T05:33:36;12.65;;;2.28;;
65206;SDS011;58477;48.072;11.970;2023-10-13T05:36:20;3.97;;;2.40;;
65206;SDS011;58477;48.072;11.970;2023-10-13T05:39:04;4.28;;;2.17;;
65206;SDS011;58477;48.072;11.970;2023-10-13T05:41:48;7.20;;;2.63;;
65206;SDS011;58477;48.072;11.970;2023-10-13T05:44:32;5.88;;;2.28;;
65206;SDS011;58477;48.072;11.970;2023-10-13T05:46:58;4.45;;;2.50;;
65206;SDS011;58477;48.072;11.970;2023-10-13T05:49:46;6.30;;;2.40;;
65206;SDS011;58477;48.072;11.970;2023-10-13T05:52:15;3.80;;;2.75;;
65206;SDS011;58477;48.072;11.970;2023-10-13T05:54:45;3.60;;;2.33;;
65206;SDS011;58477;48.072;11.970;2023-10-13T05:57:30;6.70;;;2.33;;
65206;SDS011;58477;48.072;11.970;2023-10-13T06:00:10;7.93;;;2.75;;
65206;SDS011;58477;48.072;11.970;2023-10-13T06:02:54;5.15;;;2.70;;
65206;SDS011;58477;48.072;11.970;2023-10-13T06:05:38;10.30;;;2.45;;
65206;SDS011;58477;48.072;11.970;2023-10-13T06:08:23;5.75;;;2.50;;
65206;SDS011;58477;48.072;11.970;2023-10-13T06:11:07;7.45;;;2.47;;
65206;SDS011;58477;48.072;11.970;2023-10-13T06:13:50;9.32;;;2.80;;
65206;SDS011;58477;48.072;11.970;2023-10-13T06:16:34;4.30;;;2.17;;
65206;SDS011;58477;48.072;11.970;2023-10-13T06:19:18;10.68;;;2.70;;
65206;SDS011;58477;48.072;11.970;2023-10-13T06:22:02;4.82;;;2.20;;
65206;SDS011;58477;48.072;11.970;2023-10-13T06:24:47;6.28;;;2.83;;
65206;SDS011;58477;48.072;11.970;2023-10-13T06:27:31;6.15;;;2.72;;
65206;SDS011;58477;48.072;11.970;2023-10-13T06:30:15;9.02;;;3.03;;
65206;SDS011;58477;48.072;11.970;2023-10-13T06:32:42;5.38;;;2.05;;
65206;SDS011;58477;48.072;11.970;2023-10-13T06:35:08;10.32;;;2.75;;
65206;SDS011;58477;48.072;11.970;2023-10-13T06:37:33;9.82;;;2.42;;
65206;SDS011;58477;48.072;11.970;2023-10-13T06:40:02;5.60;;;2.45;;
65206;SDS011;58477;48.072;11.970;2023-10-13T06:42:48;8.00;;;2.50;;
65206;SDS011;58477;48.072;11.970;2023-10-13T06:45:13;4.47;;;2.20;;
65206;SDS011;58477;48.072;11.970;2023-10-13T06:47:42;6.60;;;2.50;;
65206;SDS011;58477;48.072;11.970;2023-10-13T06:50:15;4.88;;;2.47;;
65206;SDS011;58477;48.072;11.970;2023-10-13T06:52:44;5.45;;;2.78;;
65206;SDS011;58477;48.072;11.970;2023-10-13T06:55:13;6.38;;;2.63;;
65206;SDS011;58477;48.072;11.970;2023-10-13T06:58:00;3.22;;;2.20;;
65206;SDS011;58477;48.072;11.970;2023-10-13T07:00:26;12.05;;;2.33;;
65206;SDS011;58477;48.072;11.970;2023-10-13T07:02:59;17.75;;;2.83;;
65206;SDS011;58477;48.072;11.970;2023-10-13T07:05:37;5.53;;;2.28;;
65206;SDS011;58477;48.072;11.970;2023-10-13T07:08:04;4.15;;;2.08;;
65206;SDS011;58477;48.072;11.970;2023-10-13T07:10:31;5.30;;;2.15;;
65206;SDS011;58477;48.072;11.970;2023-10-13T07:13:10;7.03;;;2.38;;
65206;SDS011;58477;48.072;11.970;2023-10-13T07:15:38;11.45;;;2.45;;
65206;SDS011;58477;48.072;11.970;2023-10-13T07:18:10;9.57;;;2.83;;
65206;SDS011;58477;48.072;11.970;2023-10-13T07:20:38;7.38;;;2.55;;
65206;SDS011;58477;48.072;11.970;2023-10-13T07:23:09;11.80;;;2.67;;
65206;SDS011;58477;48.072;11.970;2023-10-13T07:25:42;4.70;;;2.28;;
65206;SDS011;58477;48.072;11.970;2023-10-13T07:28:09;5.82;;;2.33;;
65206;SDS011;58477;48.072;11.970;2023-10-13T07:30:35;7.13;;;2.60;;
65206;SDS011;58477;48.072;11.970;2023-10-13T07:33:34;7.35;;;2.60;;
65206;SDS011;58477;48.072;11.970;2023-10-13T07:36:04;6.82;;;2.20;;
65206;SDS011;58477;48.072;11.970;2023-10-13T07:38:44;4.32;;;2.13;;
65206;SDS011;58477;48.072;11.970;2023-10-13T07:41:17;4.63;;;2.53;;
65206;SDS011;58477;48.072;11.970;2023-10-13T07:43:43;7.45;;;2.85;;
65206;SDS011;58477;48.072;11.970;2023-10-13T07:46:10;5.35;;;2.42;;
65206;SDS011;58477;48.072;11.970;2023-10-13T07:48:37;5.28;;;2.50;;
65206;SDS011;58477;48.072;11.970;2023-10-13T07:51:04;6.97;;;2.33;;
65206;SDS011;58477;48.072;11.970;2023-10-13T07:53:36;11.95;;;2.78;;
65206;SDS011;58477;48.072;11.970;2023-10-13T07:56:05;4.30;;;2.30;;
65206;SDS011;58477;48.072;11.970;2023-10-13T07:58:33;6.50;;;2.53;;
65206;SDS011;58477;48.072;11.970;2023-10-13T08:01:01;12.25;;;2.90;;
65206;SDS011;58477;48.072;11.970;2023-10-13T08:03:36;6.88;;;2.47;;
65206;SDS011;58477;48.072;11.970;2023-10-13T08:06:10;8.00;;;2.47;;
65206;SDS011;58477;48.072;11.970;2023-10-13T08:08:40;9.95;;;2.33;;
65206;SDS011;58477;48.072;11.970;2023-10-13T08:11:08;6.30;;;2.03;;
65206;SDS011;58477;48.072;11.970;2023-10-13T08:13:50;4.50;;;2.25;;
65206;SDS011;58477;48.072;11.970;2023-10-13T08:16:21;6.47;;;2.70;;
65206;SDS011;58477;48.072;11.970;2023-10-13T08:18:51;5.28;;;2.35;;
65206;SDS011;58477;48.072;11.970;2023-10-13T08:21:18;5.80;;;2.45;;
65206;SDS011;58477;48.072;11.970;2023-10-13T08:23:57;7.53;;;3.40;;
65206;SDS011;58477;48.072;11.970;2023-10-13T08:26:25;6.63;;;3.70;;
65206;SDS011;58477;48.072;11.970;2023-10-13T08:29:02;6.30;;;3.65;;
65206;SDS011;58477;48.072;11.970;2023-10-13T08:31:50;3.40;;;2.35;;
65206;SDS011;58477;48.072;11.970;2023-10-13T08:34:32;6.88;;;2.47;;
65206;SDS011;58477;48.072;11.970;2023-10-13T08:37:07;7.97;;;2.00;;
65206;SDS011;58477;48.072;11.970;2023-10-13T08:42:29;7.93;;;2.10;;
65206;SDS011;58477;48.072;11.970;2023-10-13T08:45:14;8.18;;;2.42;;
65206;SDS011;58477;48.072;11.970;2023-10-13T08:47:53;3.85;;;2.13;;
65206;SDS011;58477;48.072;11.970;2023-10-13T08:53:23;8.80;;;2.53;;
65206;SDS011;58477;48.072;11.970;2023-10-13T08:56:12;4.55;;;2.40;;
65206;SDS011;58477;48.072;11.970;2023-10-13T08:58:38;7.35;;;2.25;;
65206;SDS011;58477;48.072;11.970;2023-10-13T09:01:27;4.45;;;2.20;;
65206;SDS011;58477;48.072;11.970;2023-10-13T09:04:17;7.45;;;2.55;;
65206;SDS011;58477;48.072;11.970;2023-10-13T09:06:44;5.85;;;1.80;;
65206;SDS011;58477;48.072;11.970;2023-10-13T09:12:19;4.38;;;2.20;;
65206;SDS011;58477;48.072;11.970;2023-10-13T09:14:55;9.23;;;2.65;;
65206;SDS011;58477;48.072;11.970;2023-10-13T09:17:30;5.47;;;2.47;;
65206;SDS011;58477;48.072;11.970;2023-10-13T09:19:59;3.28;;;2.00;;
65206;SDS011;58477;48.072;11.970;2023-10-13T09:22:45;6.93;;;2.30;;
65206;SDS011;58477;48.072;11.970;2023-10-13T09:25:22;6.03;;;2.22;;
65206;SDS011;58477;48.072;11.970;2023-10-13T09:27:48;5.53;;;2.13;;
65206;SDS011;58477;48.072;11.970;2023-10-13T09:30:18;5.50;;;3.97;;
65206;SDS011;58477;48.072;11.970;2023-10-13T09:32:58;4.47;;;2.15;;
65206;SDS011;58477;48.072;11.970;2023-10-13T09:35:27;4.47;;;2.35;;
65206;SDS011;58477;48.072;11.970;2023-10-13T09:37:53;8.55;;;2.10;;
65206;SDS011;58477;48.072;11.970;2023-10-13T09:40:22;4.38;;;2.38;;
65206;SDS011;58477;48.072;11.970;2023-10-13T09:42:57;5.82;;;2.20;;
65206;SDS011;58477;48.072;11.970;2023-10-13T09:45:28;8.32;;;2.42;;
65206;SDS011;58477;48.072;11.970;2023-10-13T09:48:01;5.00;;;2.33;;
65206;SDS011;58477;48.072;11.970;2023-10-13T09:50:42;4.32;;;2.30;;
65206;SDS011;58477;48.072;11.970;2023-10-13T09:53:11;8.15;;;2.30;;
65206;SDS011;58477;48.072;11.970;2023-10-13T09:55:43;6.50;;;2.25;;
65206;SDS011;58477;48.072;11.970;2023-10-13T09:58:13;8.00;;;2.20;;
65206;SDS011;58477;48.072;11.970;2023-10-13T10:00:51;8.40;;;2.10;;
65206;SDS011;58477;48.072;11.970;2023-10-13T10:06:21;4.40;;;2.20;;
65206;SDS011;58477;48.072;11.970;2023-10-13T10:09:07;6.80;;;2.42;;
65206;SDS011;58477;48.072;11.970;2023-10-13T10:14:34;3.88;;;2.03;;
65206;SDS011;58477;48.072;11.970;2023-10-13T10:17:11;5.20;;;2.10;;
65206;SDS011;58477;48.072;11.970;2023-10-13T10:19:49;4.82;;;2.03;;
65206;SDS011;58477;48.072;11.970;2023-10-13T10:22:29;6.43;;;2.10;;
65206;SDS011;58477;48.072;11.970;2023-10-13T10:25:05;7.85;;;1.85;;
65206;SDS011;58477;48.072;11.970;2023-10-13T10:27:57;4.15;;;2.00;;
65206;SDS011;58477;48.072;11.970;2023-10-13T10:30:24;6.07;;;2.00;;
65206;SDS011;58477;48.072;11.970;2023-10-13T10:32:56;10.65;;;2.47;;
65206;SDS011;58477;48.072;11.970;2023-10-13T10:35:26;2.55;;;1.73;;
65206;SDS011;58477;48.072;11.970;2023-10-13T10:38:16;3.75;;;2.10;;
65206;SDS011;58477;48.072;11.970;2023-10-13T10:41:01;5.00;;;2.17;;
65206;SDS011;58477;48.072;11.970;2023-10-13T10:46:25;5.40;;;2.05;;
65206;SDS011;58477;48.072;11.970;2023-10-13T10:48:52;5.53;;;1.90;;
65206;SDS011;58477;48.072;11.970;2023-10-13T10:51:26;3.35;;;1.73;;
65206;SDS011;58477;48.072;11.970;2023-10-13T10:53:56;7.72;;;1.80;;
65206;SDS011;58477;48.072;11.970;2023-10-13T10:56:23;6.32;;;2.20;;
65206;SDS011;58477;48.072;11.970;2023-10-13T10:58:59;3.58;;;1.80;;
65206;SDS011;58477;48.072;11.970;2023-10-13T11:01:28;4.88;;;2.00;;
65206;SDS011;58477;48.072;11.970;2023-10-13T11:04:12;6.00;;;2.40;;
65206;SDS011;58477;48.072;11.970;2023-10-13T11:06:50;9.07;;;2.30;;
65206;SDS011;58477;48.072;11.970;2023-10-13T11:09:26;4.40;;;2.20;;
65206;SDS011;58477;48.072;11.970;2023-10-13T11:11:56;7.22;;;2.35;;
65206;SDS011;58477;48.072;11.970;2023-10-13T11:15:06;4.60;;;2.50;;
65206;SDS011;58477;48.072;11.970;2023-10-13T11:17:51;5.07;;;1.90;;
65206;SDS011;58477;48.072;11.970;2023-10-13T11:20:20;5.22;;;1.83;;
65206;SDS011;58477;48.072;11.970;2023-10-13T11:23:14;5.32;;;2.22;;
65206;SDS011;58477;48.072;11.970;2023-10-13T11:25:40;5.78;;;1.95;;
65206;SDS011;58477;48.072;11.970;2023-10-13T11:28:15;4.10;;;2.05;;
65206;SDS011;58477;48.072;11.970;2023-10-13T11:30:53;4.43;;;1.80;;
65206;SDS011;58477;48.072;11.970;2023-10-13T11:33:35;2.85;;;1.73;;
65206;SDS011;58477;48.072;11.970;2023-10-13T11:36:01;4.88;;;1.88;;
65206;SDS011;58477;48.072;11.970;2023-10-13T11:38:29;3.92;;;1.90;;
65206;SDS011;58477;48.072;11.970;2023-10-13T11:41:07;4.60;;;1.90;;
65206;SDS011;58477;48.072;11.970;2023-10-13T11:46:38;3.67;;;1.60;;
65206;SDS011;58477;48.072;11.970;2023-10-13T11:49:20;7.90;;;1.65;;
65206;SDS011;58477;48.072;11.970;2023-10-13T11:51:52;8.98;;;1.90;;
65206;SDS011;58477;48.072;11.970;2023-10-13T11:54:27;6.28;;;1.77;;
65206;SDS011;58477;48.072;11.970;2023-10-13T11:56:52;6.05;;;1.98;;
65206;SDS011;58477;48.072;11.970;2023-10-13T11:59:18;6.35;;;1.75;;
65206;SDS011;58477;48.072;11.970;2023-10-13T12:01:50;8.13;;;1.90;;
65206;SDS011;58477;48.072;11.970;2023-10-13T12:04:35;4.43;;;2.08;;
65206;SDS011;58477;48.072;11.970;2023-10-13T12:07:19;4.28;;;2.20;;
65206;SDS011;58477;48.072;11.970;2023-10-13T12:09:47;8.68;;;1.80;;
65206;SDS011;58477;48.072;11.970;2023-10-13T12:12:23;6.35;;;1.58;;
65206;SDS011;58477;48.072;11.970;2023-10-13T12:14:53;2.15;;;1.63;;
65206;SDS011;58477;48.072;11.970;2023-10-13T12:17:22;6.38;;;1.90;;
65206;SDS011;58477;48.072;11.970;2023-10-13T12:19:56;2.13;;;1.50;;
65206;SDS011;58477;48.072;11.970;2023-10-13T12:22:22;5.55;;;2.03;;
65206;SDS011;58477;48.072;11.970;2023-10-13T12:24:54;7.28;;;1.95;;
65206;SDS011;58477;48.072;11.970;2023-10-13T12:27:20;5.20;;;1.70;;
65206;SDS011;58477;48.072;11.970;2023-10-13T12:29:49;9.38;;;2.00;;
65206;SDS011;58477;48.072;11.970;2023-10-13T12:32:17;2.65;;;1.73;;
65206;SDS011;58477;48.072;11.970;2023-10-13T12:34:48;7.60;;;1.70;;
65206;SDS011;58477;48.072;11.970;2023-10-13T12:37:30;11.52;;;2.00;;
65206;SDS011;58477;48.072;11.970;2023-10-13T12:40:09;4.72;;;1.65;;
65206;SDS011;58477;48.072;11.970;2023-10-13T12:42:56;3.10;;;1.80;;
65206;SDS011;58477;48.072;11.970;2023-10-13T12:45:41;3.47;;;1.85;;
65206;SDS011;58477;48.072;11.970;2023-10-13T12:48:25;3.70;;;1.63;;
65206;SDS011;58477;48.072;11.970;2023-10-13T12:51:09;6.00;;;1.73;;
65206;SDS011;58477;48.072;11.970;2023-10-13T12:53:54;5.65;;;1.50;;
65206;SDS011;58477;48.072;11.970;2023-10-13T12:56:20;3.97;;;1.55;;
65206;SDS011;58477;48.072;11.970;2023-10-13T12:58:55;2.72;;;1.40;;
65206;SDS011;58477;48.072;11.970;2023-10-13T13:01:21;7.97;;;1.23;;
65206;SDS011;58477;48.072;11.970;2023-10-13T13:03:48;4.88;;;1.55;;
65206;SDS011;58477;48.072;11.970;2023-10-13T13:06:21;6.18;;;1.77;;
65206;SDS011;58477;48.072;11.970;2023-10-13T13:08:53;8.30;;;1.80;;
65206;SDS011;58477;48.072;11.970;2023-10-13T13:11:19;3.42;;;1.50;;
65206;SDS011;58477;48.072;11.970;2023-10-13T13:13:46;3.35;;;1.70;;
65206;SDS011;58477;48.072;11.970;2023-10-13T13:16:12;8.20;;;1.77;;
65206;SDS011;58477;48.072;11.970;2023-10-13T13:18:49;6.05;;;1.42;;
65206;SDS011;58477;48.072;11.970;2023-10-13T13:21:14;4.10;;;1.45;;
65206;SDS011;58477;48.072;11.970;2023-10-13T13:23:48;4.85;;;1.40;;
65206;SDS011;58477;48.072;11.970;2023-10-13T13:26:14;3.33;;;1.27;;
65206;SDS011;58477;48.072;11.970;2023-10-13T13:28:46;2.97;;;1.52;;
65206;SDS011;58477;48.072;11.970;2023-10-13T13:31:19;5.63;;;1.48;;
65206;SDS011;58477;48.072;11.970;2023-10-13T13:33:50;4.85;;;1.65;;
65206;SDS011;58477;48.072;11.970;2023-10-13T13:36:16;4.13;;;1.50;;
65206;SDS011;58477;48.072;11.970;2023-10-13T13:38:45;5.13;;;1.98;;
65206;SDS011;58477;48.072;11.970;2023-10-13T13:41:17;4.35;;;1.27;;
65206;SDS011;58477;48.072;11.970;2023-10-13T13:43:47;2.33;;;1.33;;
65206;SDS011;58477;48.072;11.970;2023-10-13T13:46:26;7.40;;;1.65;;
65206;SDS011;58477;48.072;11.970;2023-10-13T13:48:57;7.53;;;1.75;;
65206;SDS011;58477;48.072;11.970;2023-10-13T13:51:25;3.85;;;1.80;;
65206;SDS011;58477;48.072;11.970;2023-10-13T13:53:54;5.43;;;1.55;;
65206;SDS011;58477;48.072;11.970;2023-10-13T13:56:21;13.73;;;1.90;;
65206;SDS011;58477;48.072;11.970;2023-10-13T13:58:50;7.97;;;1.90;;
65206;SDS011;58477;48.072;11.970;2023-10-13T14:01:16;7.20;;;1.75;;
65206;SDS011;58477;48.072;11.970;2023-10-13T14:03:45;6.72;;;1.65;;
65206;SDS011;58477;48.072;11.970;2023-10-13T14:06:12;3.30;;;1.50;;
65206;SDS011;58477;48.072;11.970;2023-10-13T14:08:57;5.60;;;1.88;;
65206;SDS011;58477;48.072;11.970;2023-10-13T14:11:44;6.28;;;1.92;;
65206;SDS011;58477;48.072;11.970;2023-10-13T14:14:28;3.80;;;1.65;;
65206;SDS011;58477;48.072;11.970;2023-10-13T14:16:54;4.68;;;1.60;;
65206;SDS011;58477;48.072;11.970;2023-10-13T14:19:27;5.15;;;1.70;;
65206;SDS011;58477;48.072;11.970;2023-10-13T14:21:53;5.75;;;1.80;;
65206;SDS011;58477;48.072;11.970;2023-10-13T14:24:22;5.70;;;2.33;;
65206;SDS011;58477;48.072;11.970;2023-10-13T14:26:58;7.75;;;1.92;;
65206;SDS011;58477;48.072;11.970;2023-10-13T14:29:34;7.78;;;1.70;;
65206;SDS011;58477;48.072;11.970;2023-10-13T14:32:06;7.32;;;2.03;;
65206;SDS011;58477;48.072;11.970;2023-10-13T14:34:39;4.47;;;1.88;;
65206;SDS011;58477;48.072;11.970;2023-10-13T14:37:05;5.55;;;1.58;;
65206;SDS011;58477;48.072;11.970;2023-10-13T14:39:31;5.55;;;1.90;;
65206;SDS011;58477;48.072;11.970;2023-10-13T14:42:00;7.55;;;1.75;;
65206;SDS011;58477;48.072;11.970;2023-10-13T14:44:27;13.80;;;2.25;;
65206;SDS011;58477;48.072;11.970;2023-10-13T14:46:53;8.25;;;1.98;;
65206;SDS011;58477;48.072;11.970;2023-10-13T14:49:23;5.00;;;1.65;;
65206;SDS011;58477;48.072;11.970;2023-10-13T14:51:48;6.63;;;1.73;;
65206;SDS011;58477;48.072;11.970;2023-10-13T14:54:15;6.72;;;1.85;;
65206;SDS011;58477;48.072;11.970;2023-10-13T14:56:41;7.25;;;2.30;;
65206;SDS011;58477;48.072;11.970;2023-10-13T14:59:09;9.75;;;2.15;;
65206;SDS011;58477;48.072;11.970;2023-10-13T15:01:42;4.38;;;1.80;;
65206;SDS011;58477;48.072;11.970;2023-10-13T15:04:08;8.82;;;1.90;;
65206;SDS011;58477;48.072;11.970;2023-10-13T15:06:33;5.88;;;2.20;;
65206;SDS011;58477;48.072;11.970;2023-10-13T15:09:00;3.80;;;1.85;;
65206;SDS011;58477;48.072;11.970;2023-10-13T15:11:27;3.60;;;1.75;;
65206;SDS011;58477;48.072;11.970;2023-10-13T15:14:01;6.95;;;2.10;;
65206;SDS011;58477;48.072;11.970;2023-10-13T15:16:27;6.40;;;1.92;;
65206;SDS011;58477;48.072;11.970;2023-10-13T15:18:53;6.15;;;1.85;;
65206;SDS011;58477;48.072;11.970;2023-10-13T15:21:19;4.20;;;1.80;;
65206;SDS011;58477;48.072;11.970;2023-10-13T15:23:49;2.83;;;1.60;;
65206;SDS011;58477;48.072;11.970;2023-10-13T15:26:16;5.60;;;1.73;;
65206;SDS011;58477;48.072;11.970;2023-10-13T15:28:43;8.63;;;1.77;;
65206;SDS011;58477;48.072;11.970;2023-10-13T15:31:16;4.95;;;2.25;;
65206;SDS011;58477;48.072;11.970;2023-10-13T15:34:02;5.55;;;1.90;;
65206;SDS011;58477;48.072;11.970;2023-10-13T15:36:34;5.28;;;1.85;;
65206;SDS011;58477;48.072;11.970;2023-10-13T15:38:59;3.95;;;1.70;;
65206;SDS011;58477;48.072;11.970;2023-10-13T15:41:25;3.08;;;1.77;;